sensor_id;sensor_type;location;lat;lon;timestamp;temperature;humidity
23237;DHT22;11787;52.018;8.570;2023-06-14T00:01:46;17.70;96.20
23237;DHT22;11787;52.018;8.570;2023-06-14T00:04:13;17.70;96.30
23237;DHT22;11787;52.018;8.570;2023-06-14T00:06:39;17.70;96.60
23237;DHT22;11787;52.018;8.570;2023-06-14T00:09:05;17.70;96.60
23237;DHT22;11787;52.018;8.570;2023-06-14T00:11:33;17.60;96.90
23237;DHT22;11787;52.018;8.570;2023-06-14T00:13:59;17.60;96.90
23237;DHT22;11787;52.018;8.570;2023-06-14T00:16:24;17.50;97.30
23237;DHT22;11787;52.018;8.570;2023-06-14T00:18:50;17.40;97.60
23237;DHT22;11787;52.018;8.570;2023-06-14T00:21:17;17.40;97.60
23237;DHT22;11787;52.018;8.570;2023-06-14T00:23:43;17.40;97.90
23237;DHT22;11787;52.018;8.570;2023-06-14T00:26:08;17.30;98.40
23237;DHT22;11787;52.018;8.570;2023-06-14T00:28:34;17.30;98.80
23237;DHT22;11787;52.018;8.570;2023-06-14T00:30:59;17.20;98.70
23237;DHT22;11787;52.018;8.570;2023-06-14T00:33:25;17.10;98.80
23237;DHT22;11787;52.018;8.570;2023-06-14T00:35:51;17.10;98.90
23237;DHT22;11787;52.018;8.570;2023-06-14T00:38:19;17.10;99.00
23237;DHT22;11787;52.018;8.570;2023-06-14T00:40:45;17.10;98.80
23237;DHT22;11787;52.018;8.570;2023-06-14T00:43:10;17.10;98.90
23237;DHT22;11787;52.018;8.570;2023-06-14T00:45:36;17.00;99.00
23237;DHT22;11787;52.018;8.570;2023-06-14T00:48:03;17.00;99.10
23237;DHT22;11787;52.018;8.570;2023-06-14T00:50:31;17.00;99.40
23237;DHT22;11787;52.018;8.570;2023-06-14T00:53:01;16.90;99.50
23237;DHT22;11787;52.018;8.570;2023-06-14T00:55:27;16.80;99.90
23237;DHT22;11787;52.018;8.570;2023-06-14T00:57:54;16.80;99.90
23237;DHT22;11787;52.018;8.570;2023-06-14T01:00:20;16.70;99.90
23237;DHT22;11787;52.018;8.570;2023-06-14T01:02:46;16.70;99.90
23237;DHT22;11787;52.018;8.570;2023-06-14T01:05:12;16.50;99.90
23237;DHT22;11787;52.018;8.570;2023-06-14T01:08:04;16.50;99.90
23237;DHT22;11787;52.018;8.570;2023-06-14T01:10:47;16.50;99.90
23237;DHT22;11787;52.018;8.570;2023-06-14T01:13:38;16.40;99.90
23237;DHT22;11787;52.018;8.570;2023-06-14T01:16:06;16.40;99.90
23237;DHT22;11787;52.018;8.570;2023-06-14T01:18:33;16.40;99.90
23237;DHT22;11787;52.018;8.570;2023-06-14T01:20:59;16.40;99.90
23237;DHT22;11787;52.018;8.570;2023-06-14T01:23:25;16.40;99.90
23237;DHT22;11787;52.018;8.570;2023-06-14T01:25:58;16.40;99.90
23237;DHT22;11787;52.018;8.570;2023-06-14T01:28:24;16.40;99.90
23237;DHT22;11787;52.018;8.570;2023-06-14T01:30:53;16.30;99.90
23237;DHT22;11787;52.018;8.570;2023-06-14T01:33:22;16.30;99.90
23237;DHT22;11787;52.018;8.570;2023-06-14T01:35:52;16.20;99.90
23237;DHT22;11787;52.018;8.570;2023-06-14T01:38:21;16.20;99.90
23237;DHT22;11787;52.018;8.570;2023-06-14T01:40:48;16.20;99.90
23237;DHT22;11787;52.018;8.570;2023-06-14T01:43:14;16.10;99.90
23237;DHT22;11787;52.018;8.570;2023-06-14T01:45:42;16.00;99.90
23237;DHT22;11787;52.018;8.570;2023-06-14T01:48:08;16.00;99.90
23237;DHT22;11787;52.018;8.570;2023-06-14T01:50:34;16.00;99.90
23237;DHT22;11787;52.018;8.570;2023-06-14T01:53:00;15.90;99.90
23237;DHT22;11787;52.018;8.570;2023-06-14T01:55:26;15.90;99.90
23237;DHT22;11787;52.018;8.570;2023-06-14T01:57:52;15.90;99.90
23237;DHT22;11787;52.018;8.570;2023-06-14T02:00:18;15.90;99.90
23237;DHT22;11787;52.018;8.570;2023-06-14T02:02:45;15.90;99.90
23237;DHT22;11787;52.018;8.570;2023-06-14T02:05:11;15.80;99.90
23237;DHT22;11787;52.018;8.570;2023-06-14T02:07:36;15.80;99.90
23237;DHT22;11787;52.018;8.570;2023-06-14T02:10:04;15.80;99.90
23237;DHT22;11787;52.018;8.570;2023-06-14T02:12:29;15.70;99.90
23237;DHT22;11787;52.018;8.570;2023-06-14T02:14:55;15.70;99.90
23237;DHT22;11787;52.018;8.570;2023-06-14T02:17:22;15.70;99.90
23237;DHT22;11787;52.018;8.570;2023-06-14T02:19:48;15.70;99.90
23237;DHT22;11787;52.018;8.570;2023-06-14T02:22:14;15.70;99.90
23237;DHT22;11787;52.018;8.570;2023-06-14T02:24:41;15.60;99.90
23237;DHT22;11787;52.018;8.570;2023-06-14T02:27:07;15.50;99.90
23237;DHT22;11787;52.018;8.570;2023-06-14T02:29:33;15.40;99.90
23237;DHT22;11787;52.018;8.570;2023-06-14T02:31:59;15.20;99.90
23237;DHT22;11787;52.018;8.570;2023-06-14T02:34:25;15.30;99.90
23237;DHT22;11787;52.018;8.570;2023-06-14T02:36:53;15.20;99.90
23237;DHT22;11787;52.018;8.570;2023-06-14T02:39:19;15.20;99.90
23237;DHT22;11787;52.018;8.570;2023-06-14T02:41:46;15.10;99.90
23237;DHT22;11787;52.018;8.570;2023-06-14T02:44:13;15.20;99.90
23237;DHT22;11787;52.018;8.570;2023-06-14T02:46:39;15.10;99.90
23237;DHT22;11787;52.018;8.570;2023-06-14T02:49:05;15.10;99.90
23237;DHT22;11787;52.018;8.570;2023-06-14T02:51:30;15.10;99.90
23237;DHT22;11787;52.018;8.570;2023-06-14T02:53:56;15.00;99.90
23237;DHT22;11787;52.018;8.570;2023-06-14T02:56:21;15.00;99.90
23237;DHT22;11787;52.018;8.570;2023-06-14T02:58:48;15.00;99.90
23237;DHT22;11787;52.018;8.570;2023-06-14T03:01:14;15.10;99.90
23237;DHT22;11787;52.018;8.570;2023-06-14T03:03:40;15.10;99.90
23237;DHT22;11787;52.018;8.570;2023-06-14T03:06:05;15.10;99.90
23237;DHT22;11787;52.018;8.570;2023-06-14T03:08:33;15.10;99.90
23237;DHT22;11787;52.018;8.570;2023-06-14T03:11:04;15.10;99.90
23237;DHT22;11787;52.018;8.570;2023-06-14T03:13:34;15.00;99.90
23237;DHT22;11787;52.018;8.570;2023-06-14T03:16:00;15.00;99.90
23237;DHT22;11787;52.018;8.570;2023-06-14T03:18:30;15.10;99.90
23237;DHT22;11787;52.018;8.570;2023-06-14T03:21:01;15.00;99.90
23237;DHT22;11787;52.018;8.570;2023-06-14T03:23:26;15.00;99.90
23237;DHT22;11787;52.018;8.570;2023-06-14T03:25:52;15.00;99.90
23237;DHT22;11787;52.018;8.570;2023-06-14T03:28:18;15.00;99.90
23237;DHT22;11787;52.018;8.570;2023-06-14T03:30:43;14.90;99.90
23237;DHT22;11787;52.018;8.570;2023-06-14T03:33:09;15.00;99.90
23237;DHT22;11787;52.018;8.570;2023-06-14T03:35:35;15.00;99.90
23237;DHT22;11787;52.018;8.570;2023-06-14T03:38:00;14.90;99.90
23237;DHT22;11787;52.018;8.570;2023-06-14T03:40:27;14.90;99.90
23237;DHT22;11787;52.018;8.570;2023-06-14T03:42:54;14.90;99.90
23237;DHT22;11787;52.018;8.570;2023-06-14T03:45:19;14.90;99.90
23237;DHT22;11787;52.018;8.570;2023-06-14T03:47:46;14.90;99.90
23237;DHT22;11787;52.018;8.570;2023-06-14T03:50:11;14.90;99.90
23237;DHT22;11787;52.018;8.570;2023-06-14T03:52:37;14.80;99.90
23237;DHT22;11787;52.018;8.570;2023-06-14T03:55:04;14.70;99.90
23237;DHT22;11787;52.018;8.570;2023-06-14T03:57:30;14.60;99.90
23237;DHT22;11787;52.018;8.570;2023-06-14T03:59:56;14.60;99.90
23237;DHT22;11787;52.018;8.570;2023-06-14T04:02:21;14.70;99.90
23237;DHT22;11787;52.018;8.570;2023-06-14T04:04:48;14.80;99.90
23237;DHT22;11787;52.018;8.570;2023-06-14T04:07:14;14.80;99.90
23237;DHT22;11787;52.018;8.570;2023-06-14T04:09:40;14.80;99.90
23237;DHT22;11787;52.018;8.570;2023-06-14T04:12:07;14.80;99.90
23237;DHT22;11787;52.018;8.570;2023-06-14T04:14:34;14.90;99.90
23237;DHT22;11787;52.018;8.570;2023-06-14T04:17:00;14.90;99.90
23237;DHT22;11787;52.018;8.570;2023-06-14T04:19:26;14.90;99.90
23237;DHT22;11787;52.018;8.570;2023-06-14T04:21:52;15.00;99.90
23237;DHT22;11787;52.018;8.570;2023-06-14T04:24:18;15.10;99.90
23237;DHT22;11787;52.018;8.570;2023-06-14T04:26:44;15.20;99.90
23237;DHT22;11787;52.018;8.570;2023-06-14T04:29:11;15.20;99.90
23237;DHT22;11787;52.018;8.570;2023-06-14T04:31:40;15.30;99.90
23237;DHT22;11787;52.018;8.570;2023-06-14T04:34:05;15.40;99.90
23237;DHT22;11787;52.018;8.570;2023-06-14T04:36:35;15.50;99.90
23237;DHT22;11787;52.018;8.570;2023-06-14T04:39:04;15.50;99.90
23237;DHT22;11787;52.018;8.570;2023-06-14T04:41:30;15.50;99.90
23237;DHT22;11787;52.018;8.570;2023-06-14T04:43:58;15.50;99.90
23237;DHT22;11787;52.018;8.570;2023-06-14T04:46:27;15.60;99.90
23237;DHT22;11787;52.018;8.570;2023-06-14T04:48:54;15.60;99.90
23237;DHT22;11787;52.018;8.570;2023-06-14T04:51:20;15.60;99.90
23237;DHT22;11787;52.018;8.570;2023-06-14T04:53:55;15.60;99.90
23237;DHT22;11787;52.018;8.570;2023-06-14T04:56:23;15.60;99.90
23237;DHT22;11787;52.018;8.570;2023-06-14T04:58:48;15.60;99.90
23237;DHT22;11787;52.018;8.570;2023-06-14T05:01:14;15.60;99.90
23237;DHT22;11787;52.018;8.570;2023-06-14T05:03:39;15.70;99.90
23237;DHT22;11787;52.018;8.570;2023-06-14T05:06:06;15.80;99.90
23237;DHT22;11787;52.018;8.570;2023-06-14T05:08:32;15.90;99.90
23237;DHT22;11787;52.018;8.570;2023-06-14T05:10:57;16.20;99.90
23237;DHT22;11787;52.018;8.570;2023-06-14T05:13:23;16.40;99.90
23237;DHT22;11787;52.018;8.570;2023-06-14T05:15:49;16.60;99.90
23237;DHT22;11787;52.018;8.570;2023-06-14T05:18:14;16.80;99.90
23237;DHT22;11787;52.018;8.570;2023-06-14T05:20:40;17.20;99.90
23237;DHT22;11787;52.018;8.570;2023-06-14T05:23:08;17.30;99.90
23237;DHT22;11787;52.018;8.570;2023-06-14T05:25:34;17.50;99.90
23237;DHT22;11787;52.018;8.570;2023-06-14T05:27:59;17.70;99.90
23237;DHT22;11787;52.018;8.570;2023-06-14T05:30:25;17.90;99.90
23237;DHT22;11787;52.018;8.570;2023-06-14T05:32:51;18.20;99.90
23237;DHT22;11787;52.018;8.570;2023-06-14T05:35:18;18.30;99.90
23237;DHT22;11787;52.018;8.570;2023-06-14T05:37:43;18.50;99.90
23237;DHT22;11787;52.018;8.570;2023-06-14T05:40:09;18.70;99.90
23237;DHT22;11787;52.018;8.570;2023-06-14T05:42:35;18.80;99.90
23237;DHT22;11787;52.018;8.570;2023-06-14T05:45:00;19.10;99.90
23237;DHT22;11787;52.018;8.570;2023-06-14T05:47:26;19.30;99.90
23237;DHT22;11787;52.018;8.570;2023-06-14T05:49:53;19.40;99.90
23237;DHT22;11787;52.018;8.570;2023-06-14T05:52:19;19.60;99.90
23237;DHT22;11787;52.018;8.570;2023-06-14T05:54:46;19.90;99.90
23237;DHT22;11787;52.018;8.570;2023-06-14T05:57:11;19.70;99.90
23237;DHT22;11787;52.018;8.570;2023-06-14T05:59:37;20.00;99.90
23237;DHT22;11787;52.018;8.570;2023-06-14T06:02:03;20.30;99.90
23237;DHT22;11787;52.018;8.570;2023-06-14T06:04:28;20.50;99.90
23237;DHT22;11787;52.018;8.570;2023-06-14T06:06:54;21.00;99.90
23237;DHT22;11787;52.018;8.570;2023-06-14T06:09:19;21.10;99.90
23237;DHT22;11787;52.018;8.570;2023-06-14T06:11:45;21.00;99.90
23237;DHT22;11787;52.018;8.570;2023-06-14T06:14:10;21.40;99.90
23237;DHT22;11787;52.018;8.570;2023-06-14T06:16:36;21.20;99.90
23237;DHT22;11787;52.018;8.570;2023-06-14T06:19:02;20.80;99.90
23237;DHT22;11787;52.018;8.570;2023-06-14T06:21:27;20.80;99.90
23237;DHT22;11787;52.018;8.570;2023-06-14T06:23:53;21.10;99.90
23237;DHT22;11787;52.018;8.570;2023-06-14T06:26:21;21.10;99.90
23237;DHT22;11787;52.018;8.570;2023-06-14T06:28:46;20.90;99.90
23237;DHT22;11787;52.018;8.570;2023-06-14T06:31:12;20.90;99.90
23237;DHT22;11787;52.018;8.570;2023-06-14T06:33:38;21.20;99.90
23237;DHT22;11787;52.018;8.570;2023-06-14T06:36:05;21.20;99.90
23237;DHT22;11787;52.018;8.570;2023-06-14T06:38:30;20.70;99.90
23237;DHT22;11787;52.018;8.570;2023-06-14T06:40:57;20.90;99.90
23237;DHT22;11787;52.018;8.570;2023-06-14T06:43:22;21.00;99.90
23237;DHT22;11787;52.018;8.570;2023-06-14T06:45:48;20.80;99.90
23237;DHT22;11787;52.018;8.570;2023-06-14T06:48:14;20.70;99.90
23237;DHT22;11787;52.018;8.570;2023-06-14T06:50:39;20.60;99.90
23237;DHT22;11787;52.018;8.570;2023-06-14T06:53:05;20.40;99.90
23237;DHT22;11787;52.018;8.570;2023-06-14T06:55:32;20.40;99.90
23237;DHT22;11787;52.018;8.570;2023-06-14T06:57:57;20.40;99.90
23237;DHT22;11787;52.018;8.570;2023-06-14T07:00:23;20.20;99.90
23237;DHT22;11787;52.018;8.570;2023-06-14T07:02:49;20.10;99.90
23237;DHT22;11787;52.018;8.570;2023-06-14T07:05:14;20.20;99.90
23237;DHT22;11787;52.018;8.570;2023-06-14T07:07:40;20.20;99.90
23237;DHT22;11787;52.018;8.570;2023-06-14T07:10:06;20.00;99.90
23237;DHT22;11787;52.018;8.570;2023-06-14T07:12:32;19.90;99.90
23237;DHT22;11787;52.018;8.570;2023-06-14T07:14:59;19.80;99.90
23237;DHT22;11787;52.018;8.570;2023-06-14T07:17:25;19.80;99.90
23237;DHT22;11787;52.018;8.570;2023-06-14T07:19:50;19.70;99.90
23237;DHT22;11787;52.018;8.570;2023-06-14T07:22:16;19.70;99.90
23237;DHT22;11787;52.018;8.570;2023-06-14T07:24:43;19.90;99.90
23237;DHT22;11787;52.018;8.570;2023-06-14T07:27:08;20.00;99.90
23237;DHT22;11787;52.018;8.570;2023-06-14T07:29:34;19.80;99.90
23237;DHT22;11787;52.018;8.570;2023-06-14T07:32:00;19.80;99.90
23237;DHT22;11787;52.018;8.570;2023-06-14T07:34:25;20.10;99.90
23237;DHT22;11787;52.018;8.570;2023-06-14T07:36:52;20.10;99.90
23237;DHT22;11787;52.018;8.570;2023-06-14T07:39:19;20.30;99.90
23237;DHT22;11787;52.018;8.570;2023-06-14T07:41:45;20.30;99.90
23237;DHT22;11787;52.018;8.570;2023-06-14T07:44:10;20.20;99.90
23237;DHT22;11787;52.018;8.570;2023-06-14T07:46:37;20.10;99.90
23237;DHT22;11787;52.018;8.570;2023-06-14T07:49:03;20.10;99.90
23237;DHT22;11787;52.018;8.570;2023-06-14T07:51:29;20.20;99.90
23237;DHT22;11787;52.018;8.570;2023-06-14T07:53:54;20.30;99.90
23237;DHT22;11787;52.018;8.570;2023-06-14T07:56:20;20.40;99.90
23237;DHT22;11787;52.018;8.570;2023-06-14T07:58:46;20.50;99.90
23237;DHT22;11787;52.018;8.570;2023-06-14T08:01:12;20.60;99.90
23237;DHT22;11787;52.018;8.570;2023-06-14T08:03:37;20.70;99.90
23237;DHT22;11787;52.018;8.570;2023-06-14T08:06:03;20.80;99.90
23237;DHT22;11787;52.018;8.570;2023-06-14T08:08:29;20.80;99.90
23237;DHT22;11787;52.018;8.570;2023-06-14T08:10:56;20.90;99.90
23237;DHT22;11787;52.018;8.570;2023-06-14T08:13:21;21.20;99.90
23237;DHT22;11787;52.018;8.570;2023-06-14T08:15:47;21.40;99.90
23237;DHT22;11787;52.018;8.570;2023-06-14T08:18:12;21.30;99.90
23237;DHT22;11787;52.018;8.570;2023-06-14T08:20:38;21.30;99.90
23237;DHT22;11787;52.018;8.570;2023-06-14T08:23:05;21.30;99.90
23237;DHT22;11787;52.018;8.570;2023-06-14T08:25:30;21.20;99.90
23237;DHT22;11787;52.018;8.570;2023-06-14T08:27:56;21.10;99.90
23237;DHT22;11787;52.018;8.570;2023-06-14T08:30:22;21.30;99.90
23237;DHT22;11787;52.018;8.570;2023-06-14T08:32:48;21.40;99.90
23237;DHT22;11787;52.018;8.570;2023-06-14T08:35:13;21.60;99.90
23237;DHT22;11787;52.018;8.570;2023-06-14T08:37:40;21.60;99.90
23237;DHT22;11787;52.018;8.570;2023-06-14T08:40:20;21.80;99.90
23237;DHT22;11787;52.018;8.570;2023-06-14T08:42:55;22.00;99.90
23237;DHT22;11787;52.018;8.570;2023-06-14T08:45:22;21.70;99.90
23237;DHT22;11787;52.018;8.570;2023-06-14T08:47:48;21.50;99.90
23237;DHT22;11787;52.018;8.570;2023-06-14T08:50:20;21.60;99.90
23237;DHT22;11787;52.018;8.570;2023-06-14T08:52:48;21.70;99.90
23237;DHT22;11787;52.018;8.570;2023-06-14T08:55:18;21.70;99.90
23237;DHT22;11787;52.018;8.570;2023-06-14T08:57:46;21.70;99.90
23237;DHT22;11787;52.018;8.570;2023-06-14T09:00:13;21.70;99.90
23237;DHT22;11787;52.018;8.570;2023-06-14T09:02:40;21.70;99.90
23237;DHT22;11787;52.018;8.570;2023-06-14T09:05:14;21.80;99.90
23237;DHT22;11787;52.018;8.570;2023-06-14T09:07:43;22.10;99.90
23237;DHT22;11787;52.018;8.570;2023-06-14T09:10:14;21.80;99.90
23237;DHT22;11787;52.018;8.570;2023-06-14T09:12:40;22.00;99.90
23237;DHT22;11787;52.018;8.570;2023-06-14T09:15:06;22.20;99.90
23237;DHT22;11787;52.018;8.570;2023-06-14T09:17:37;22.30;99.60
23237;DHT22;11787;52.018;8.570;2023-06-14T09:20:04;22.30;99.30
23237;DHT22;11787;52.018;8.570;2023-06-14T09:22:38;22.40;99.70
23237;DHT22;11787;52.018;8.570;2023-06-14T09:25:05;22.60;99.00
23237;DHT22;11787;52.018;8.570;2023-06-14T09:27:31;22.70;99.90
23237;DHT22;11787;52.018;8.570;2023-06-14T09:29:56;23.10;98.90
23237;DHT22;11787;52.018;8.570;2023-06-14T09:32:22;23.40;97.60
23237;DHT22;11787;52.018;8.570;2023-06-14T09:34:48;23.60;98.00
23237;DHT22;11787;52.018;8.570;2023-06-14T09:37:27;23.80;97.20
23237;DHT22;11787;52.018;8.570;2023-06-14T09:39:53;23.90;97.80
23237;DHT22;11787;52.018;8.570;2023-06-14T09:42:19;24.10;97.20
23237;DHT22;11787;52.018;8.570;2023-06-14T09:44:48;24.10;97.00
23237;DHT22;11787;52.018;8.570;2023-06-14T09:47:15;23.90;97.50
23237;DHT22;11787;52.018;8.570;2023-06-14T09:49:42;24.10;96.70
23237;DHT22;11787;52.018;8.570;2023-06-14T09:52:14;24.20;96.50
23237;DHT22;11787;52.018;8.570;2023-06-14T09:54:42;24.00;96.00
23237;DHT22;11787;52.018;8.570;2023-06-14T09:57:22;24.10;96.10
23237;DHT22;11787;52.018;8.570;2023-06-14T09:59:49;24.30;96.70
23237;DHT22;11787;52.018;8.570;2023-06-14T10:02:31;24.40;96.30
23237;DHT22;11787;52.018;8.570;2023-06-14T10:05:07;24.50;96.70
23237;DHT22;11787;52.018;8.570;2023-06-14T10:08:04;24.40;96.70
23237;DHT22;11787;52.018;8.570;2023-06-14T10:10:30;25.00;96.80
23237;DHT22;11787;52.018;8.570;2023-06-14T10:12:56;25.30;95.20
23237;DHT22;11787;52.018;8.570;2023-06-14T10:15:45;25.50;95.00
23237;DHT22;11787;52.018;8.570;2023-06-14T10:18:31;25.20;95.40
23237;DHT22;11787;52.018;8.570;2023-06-14T10:23:42;25.10;94.60
23237;DHT22;11787;52.018;8.570;2023-06-14T10:26:18;25.30;95.00
23237;DHT22;11787;52.018;8.570;2023-06-14T10:29:17;25.40;94.10
23237;DHT22;11787;52.018;8.570;2023-06-14T10:34:08;25.70;94.10
23237;DHT22;11787;52.018;8.570;2023-06-14T10:36:34;26.20;94.30
23237;DHT22;11787;52.018;8.570;2023-06-14T10:39:05;26.10;94.40
23237;DHT22;11787;52.018;8.570;2023-06-14T10:41:35;26.50;95.30
23237;DHT22;11787;52.018;8.570;2023-06-14T10:46:39;27.10;92.20
23237;DHT22;11787;52.018;8.570;2023-06-14T10:49:05;26.90;91.20
23237;DHT22;11787;52.018;8.570;2023-06-14T10:51:39;27.20;91.20
23237;DHT22;11787;52.018;8.570;2023-06-14T10:54:15;27.60;91.30
23237;DHT22;11787;52.018;8.570;2023-06-14T10:56:48;27.80;91.40
23237;DHT22;11787;52.018;8.570;2023-06-14T10:59:14;28.30;90.80
23237;DHT22;11787;52.018;8.570;2023-06-14T11:02:03;28.00;90.50
23237;DHT22;11787;52.018;8.570;2023-06-14T11:04:51;27.90;90.30
23237;DHT22;11787;52.018;8.570;2023-06-14T11:12:48;28.50;89.20
23237;DHT22;11787;52.018;8.570;2023-06-14T11:15:14;28.20;89.30
23237;DHT22;11787;52.018;8.570;2023-06-14T11:17:52;27.40;88.30
23237;DHT22;11787;52.018;8.570;2023-06-14T11:20:25;27.60;89.20
23237;DHT22;11787;52.018;8.570;2023-06-14T11:22:52;28.00;89.60
23237;DHT22;11787;52.018;8.570;2023-06-14T11:25:17;27.80;89.40
23237;DHT22;11787;52.018;8.570;2023-06-14T11:27:44;27.90;87.50
23237;DHT22;11787;52.018;8.570;2023-06-14T11:30:10;28.10;86.30
23237;DHT22;11787;52.018;8.570;2023-06-14T11:32:37;28.50;85.80
23237;DHT22;11787;52.018;8.570;2023-06-14T11:35:04;28.70;85.80
23237;DHT22;11787;52.018;8.570;2023-06-14T11:37:33;28.50;84.30
23237;DHT22;11787;52.018;8.570;2023-06-14T11:40:03;28.40;85.80
23237;DHT22;11787;52.018;8.570;2023-06-14T11:42:31;28.50;85.60
23237;DHT22;11787;52.018;8.570;2023-06-14T11:44:57;28.70;85.00
23237;DHT22;11787;52.018;8.570;2023-06-14T11:47:23;28.80;85.80
23237;DHT22;11787;52.018;8.570;2023-06-14T11:49:48;28.40;86.20
23237;DHT22;11787;52.018;8.570;2023-06-14T11:52:14;28.00;85.50
23237;DHT22;11787;52.018;8.570;2023-06-14T11:54:40;28.30;83.10
23237;DHT22;11787;52.018;8.570;2023-06-14T11:57:09;28.40;84.10
23237;DHT22;11787;52.018;8.570;2023-06-14T11:59:39;28.60;85.00
23237;DHT22;11787;52.018;8.570;2023-06-14T12:02:05;28.40;86.40
23237;DHT22;11787;52.018;8.570;2023-06-14T12:04:32;28.80;87.00
23237;DHT22;11787;52.018;8.570;2023-06-14T12:06:57;28.70;86.40
23237;DHT22;11787;52.018;8.570;2023-06-14T12:09:35;28.40;85.60
23237;DHT22;11787;52.018;8.570;2023-06-14T12:12:00;27.60;84.60
23237;DHT22;11787;52.018;8.570;2023-06-14T12:14:30;27.70;85.30
23237;DHT22;11787;52.018;8.570;2023-06-14T12:17:06;27.90;84.50
23237;DHT22;11787;52.018;8.570;2023-06-14T12:19:32;27.70;84.90
23237;DHT22;11787;52.018;8.570;2023-06-14T12:21:59;28.60;84.50
23237;DHT22;11787;52.018;8.570;2023-06-14T12:24:29;30.10;82.40
23237;DHT22;11787;52.018;8.570;2023-06-14T12:26:57;30.60;81.00
23237;DHT22;11787;52.018;8.570;2023-06-14T12:29:25;29.90;80.50
23237;DHT22;11787;52.018;8.570;2023-06-14T12:31:51;29.30;81.90
23237;DHT22;11787;52.018;8.570;2023-06-14T12:34:19;29.60;81.90
23237;DHT22;11787;52.018;8.570;2023-06-14T12:36:45;29.50;84.50
23237;DHT22;11787;52.018;8.570;2023-06-14T12:39:12;29.80;82.20
23237;DHT22;11787;52.018;8.570;2023-06-14T12:41:37;29.70;81.80
23237;DHT22;11787;52.018;8.570;2023-06-14T12:44:03;29.30;82.80
23237;DHT22;11787;52.018;8.570;2023-06-14T12:46:32;28.90;82.90
23237;DHT22;11787;52.018;8.570;2023-06-14T12:48:58;28.40;83.40
23237;DHT22;11787;52.018;8.570;2023-06-14T12:51:23;28.70;84.10
23237;DHT22;11787;52.018;8.570;2023-06-14T12:53:50;28.80;82.70
23237;DHT22;11787;52.018;8.570;2023-06-14T12:56:16;28.60;85.10
23237;DHT22;11787;52.018;8.570;2023-06-14T12:58:42;28.90;87.10
23237;DHT22;11787;52.018;8.570;2023-06-14T13:01:07;28.90;84.40
23237;DHT22;11787;52.018;8.570;2023-06-14T13:03:33;29.00;81.80
23237;DHT22;11787;52.018;8.570;2023-06-14T13:05:59;29.30;82.30
23237;DHT22;11787;52.018;8.570;2023-06-14T13:08:26;29.40;81.40
23237;DHT22;11787;52.018;8.570;2023-06-14T13:10:51;29.40;82.60
23237;DHT22;11787;52.018;8.570;2023-06-14T13:13:17;28.60;82.20
23237;DHT22;11787;52.018;8.570;2023-06-14T13:15:42;28.60;81.40
23237;DHT22;11787;52.018;8.570;2023-06-14T13:18:09;28.30;82.30
23237;DHT22;11787;52.018;8.570;2023-06-14T13:20:34;28.20;83.50
23237;DHT22;11787;52.018;8.570;2023-06-14T13:23:00;28.40;82.70
23237;DHT22;11787;52.018;8.570;2023-06-14T13:25:27;28.40;83.60
23237;DHT22;11787;52.018;8.570;2023-06-14T13:27:53;28.20;84.00
23237;DHT22;11787;52.018;8.570;2023-06-14T13:30:18;28.30;82.80
23237;DHT22;11787;52.018;8.570;2023-06-14T13:32:44;28.60;82.10
23237;DHT22;11787;52.018;8.570;2023-06-14T13:35:09;28.90;83.10
23237;DHT22;11787;52.018;8.570;2023-06-14T13:37:35;28.50;82.50
23237;DHT22;11787;52.018;8.570;2023-06-14T13:40:01;27.90;84.60
23237;DHT22;11787;52.018;8.570;2023-06-14T13:42:27;27.60;85.40
23237;DHT22;11787;52.018;8.570;2023-06-14T13:44:53;27.50;86.60
23237;DHT22;11787;52.018;8.570;2023-06-14T13:47:18;27.50;87.00
23237;DHT22;11787;52.018;8.570;2023-06-14T13:49:44;27.50;85.90
23237;DHT22;11787;52.018;8.570;2023-06-14T13:52:09;27.60;86.10
23237;DHT22;11787;52.018;8.570;2023-06-14T13:54:36;27.80;85.80
23237;DHT22;11787;52.018;8.570;2023-06-14T13:57:02;27.40;85.20
23237;DHT22;11787;52.018;8.570;2023-06-14T13:59:27;27.40;85.10
23237;DHT22;11787;52.018;8.570;2023-06-14T14:01:53;27.20;84.70
23237;DHT22;11787;52.018;8.570;2023-06-14T14:04:19;27.20;85.50
23237;DHT22;11787;52.018;8.570;2023-06-14T14:06:44;27.00;86.20
23237;DHT22;11787;52.018;8.570;2023-06-14T14:09:10;27.10;86.70
23237;DHT22;11787;52.018;8.570;2023-06-14T14:11:36;27.10;86.00
23237;DHT22;11787;52.018;8.570;2023-06-14T14:14:03;27.20;86.30
23237;DHT22;11787;52.018;8.570;2023-06-14T14:16:30;27.20;86.80
23237;DHT22;11787;52.018;8.570;2023-06-14T14:18:56;26.80;87.20
23237;DHT22;11787;52.018;8.570;2023-06-14T14:21:21;26.60;87.80
23237;DHT22;11787;52.018;8.570;2023-06-14T14:23:47;26.20;88.70
23237;DHT22;11787;52.018;8.570;2023-06-14T14:26:13;26.00;88.80
23237;DHT22;11787;52.018;8.570;2023-06-14T14:28:38;26.10;90.00
23237;DHT22;11787;52.018;8.570;2023-06-14T14:31:04;26.60;89.20
23237;DHT22;11787;52.018;8.570;2023-06-14T14:33:30;26.90;88.60
23237;DHT22;11787;52.018;8.570;2023-06-14T14:35:55;27.30;87.60
23237;DHT22;11787;52.018;8.570;2023-06-14T14:38:21;27.20;88.10
23237;DHT22;11787;52.018;8.570;2023-06-14T14:40:47;27.20;86.80
23237;DHT22;11787;52.018;8.570;2023-06-14T14:43:13;26.90;86.60
23237;DHT22;11787;52.018;8.570;2023-06-14T14:45:38;26.40;89.00
23237;DHT22;11787;52.018;8.570;2023-06-14T14:48:04;26.10;89.10
23237;DHT22;11787;52.018;8.570;2023-06-14T14:50:30;26.10;86.90
23237;DHT22;11787;52.018;8.570;2023-06-14T14:52:56;26.30;86.80
23237;DHT22;11787;52.018;8.570;2023-06-14T14:55:22;26.20;87.30
23237;DHT22;11787;52.018;8.570;2023-06-14T14:57:47;26.50;88.70
23237;DHT22;11787;52.018;8.570;2023-06-14T15:00:13;26.90;88.00
23237;DHT22;11787;52.018;8.570;2023-06-14T15:02:39;27.10;87.10
23237;DHT22;11787;52.018;8.570;2023-06-14T15:05:05;27.10;87.20
23237;DHT22;11787;52.018;8.570;2023-06-14T15:07:31;27.20;86.20
23237;DHT22;11787;52.018;8.570;2023-06-14T15:09:59;27.30;86.60
23237;DHT22;11787;52.018;8.570;2023-06-14T15:12:24;27.20;87.30
23237;DHT22;11787;52.018;8.570;2023-06-14T15:14:50;27.30;86.70
23237;DHT22;11787;52.018;8.570;2023-06-14T15:17:20;27.00;87.30
23237;DHT22;11787;52.018;8.570;2023-06-14T15:19:47;26.60;88.10
23237;DHT22;11787;52.018;8.570;2023-06-14T15:22:13;26.60;90.00
23237;DHT22;11787;52.018;8.570;2023-06-14T15:24:40;26.40;90.00
23237;DHT22;11787;52.018;8.570;2023-06-14T15:27:06;26.30;89.20
23237;DHT22;11787;52.018;8.570;2023-06-14T15:29:31;26.00;89.80
23237;DHT22;11787;52.018;8.570;2023-06-14T15:31:57;26.00;90.10
23237;DHT22;11787;52.018;8.570;2023-06-14T15:34:23;25.80;90.60
23237;DHT22;11787;52.018;8.570;2023-06-14T15:36:49;25.90;90.50
23237;DHT22;11787;52.018;8.570;2023-06-14T15:39:15;25.90;91.10
23237;DHT22;11787;52.018;8.570;2023-06-14T15:41:41;25.80;90.50
23237;DHT22;11787;52.018;8.570;2023-06-14T15:44:06;25.90;90.70